createdAt,value
2023-05-20T00:02:27.826Z,3.40
2023-05-20T00:04:56.041Z,3.35
2023-05-20T00:07:23.867Z,4.13
2023-05-20T00:09:51.848Z,3.45
2023-05-20T00:12:19.620Z,2.80
2023-05-20T00:14:47.337Z,3.70
2023-05-20T00:17:15.020Z,3.50
2023-05-20T00:19:42.658Z,3.22
2023-05-20T00:22:10.814Z,4.03
2023-05-20T00:24:38.576Z,3.83
2023-05-20T00:27:06.436Z,4.00
2023-05-20T00:29:34.435Z,3.25
2023-05-20T00:32:02.182Z,3.22
2023-05-20T00:34:29.896Z,3.25
2023-05-20T00:36:57.598Z,3.35
2023-05-20T00:39:25.509Z,3.72
2023-05-20T00:41:53.300Z,3.45
2023-05-20T00:44:24.090Z,3.58
2023-05-20T00:46:51.952Z,4.13
2023-05-20T00:49:20.969Z,3.83
2023-05-20T00:51:49.660Z,3.67
2023-05-20T00:54:17.570Z,3.22
2023-05-20T00:56:45.369Z,4.07
2023-05-20T00:59:13.236Z,3.88
2023-05-20T01:01:41.032Z,4.00
2023-05-20T01:04:09.132Z,3.13
2023-05-20T01:06:38.154Z,3.97
2023-05-20T01:09:06.260Z,3.80
2023-05-20T01:11:44.545Z,3.90
2023-05-20T01:14:13.547Z,3.95
2023-05-20T01:16:43.606Z,4.10
2023-05-20T01:19:38.995Z,3.55
2023-05-20T01:22:08.496Z,3.47
2023-05-20T01:24:37.644Z,3.70
2023-05-20T01:27:05.432Z,3.60
2023-05-20T01:29:35.325Z,3.38
2023-05-20T01:32:08.223Z,3.95
2023-05-20T01:34:37.304Z,3.33
2023-05-20T01:37:07.050Z,3.90
2023-05-20T01:39:39.581Z,3.40
2023-05-20T01:42:08.796Z,3.22
2023-05-20T01:44:37.203Z,3.95
2023-05-20T01:47:05.304Z,3.72
2023-05-20T01:49:33.247Z,3.60
2023-05-20T01:52:01.013Z,5.07
2023-05-20T01:54:30.644Z,4.10
2023-05-20T01:56:58.348Z,3.30
2023-05-20T01:59:26.150Z,4.28
2023-05-20T02:01:54.024Z,3.47
2023-05-20T02:04:22.796Z,4.22
2023-05-20T02:06:50.835Z,4.07
2023-05-20T02:09:19.470Z,3.80
2023-05-20T02:11:47.212Z,3.70
2023-05-20T02:14:15.066Z,3.92
2023-05-20T02:16:45.473Z,4.28
2023-05-20T02:19:14.110Z,3.42
2023-05-20T02:21:42.180Z,3.75
2023-05-20T02:24:10.944Z,3.88
2023-05-20T02:26:38.630Z,3.63
2023-05-20T02:29:06.523Z,3.92
2023-05-20T02:31:34.295Z,3.70
2023-05-20T02:34:04.746Z,3.97
2023-05-20T02:36:32.569Z,3.67
2023-05-20T02:39:02.546Z,3.80
2023-05-20T02:41:32.213Z,3.63
2023-05-20T02:43:59.894Z,4.68
2023-05-20T02:46:29.570Z,5.03
2023-05-20T02:48:57.476Z,4.20
2023-05-20T02:51:25.731Z,3.88
2023-05-20T02:53:53.480Z,3.83
2023-05-20T02:56:21.670Z,3.92
2023-05-20T02:58:49.612Z,3.55
2023-05-20T03:01:17.543Z,4.38
2023-05-20T03:03:45.262Z,4.25
2023-05-20T03:06:12.915Z,4.10
2023-05-20T03:08:42.886Z,4.35
2023-05-20T03:11:10.695Z,3.95
2023-05-20T03:13:38.486Z,4.13
2023-05-20T03:16:06.492Z,4.22
2023-05-20T03:18:34.309Z,4.53
2023-05-20T03:21:02.046Z,3.78
2023-05-20T03:23:30.898Z,3.63
2023-05-20T03:25:58.824Z,4.22
2023-05-20T03:28:26.722Z,4.10
2023-05-20T03:30:54.731Z,4.10
2023-05-20T03:33:26.219Z,3.47
2023-05-20T03:35:54.871Z,3.70
2023-05-20T03:38:23.203Z,3.78
2023-05-20T03:40:51.131Z,4.10
2023-05-20T03:43:19.014Z,4.20
2023-05-20T03:45:46.753Z,4.30
2023-05-20T03:48:15.096Z,3.28
2023-05-20T03:50:43.639Z,4.50
2023-05-20T03:53:12.074Z,4.03
2023-05-20T03:55:42.607Z,3.78
2023-05-20T03:58:13.613Z,4.00
2023-05-20T04:00:41.890Z,3.60
2023-05-20T04:03:10.564Z,3.78
2023-05-20T04:05:38.608Z,4.45
2023-05-20T04:08:14.562Z,3.95
2023-05-20T04:10:45.546Z,3.78
2023-05-20T04:13:14.269Z,3.90
2023-05-20T04:15:42.595Z,4.47
2023-05-20T04:18:12.362Z,4.25
2023-05-20T04:20:41.556Z,3.70
2023-05-20T04:23:10.790Z,4.47
2023-05-20T04:25:39.153Z,3.88
2023-05-20T04:28:07.922Z,3.80
2023-05-20T04:30:35.624Z,3.63
2023-05-20T04:33:04.157Z,3.92
2023-05-20T04:35:35.324Z,3.95
2023-05-20T04:38:05.547Z,3.80
2023-05-20T04:40:33.360Z,3.30
2023-05-20T04:43:01.051Z,3.38
2023-05-20T04:45:28.928Z,2.70
2023-05-20T04:47:56.702Z,2.67
2023-05-20T04:50:24.528Z,3.15
2023-05-20T04:52:52.510Z,3.30
2023-05-20T04:55:21.613Z,2.95
2023-05-20T04:57:49.921Z,3.38
2023-05-20T05:00:18.193Z,3.65
2023-05-20T05:02:46.102Z,3.22
2023-05-20T05:05:13.851Z,3.17
2023-05-20T05:07:41.639Z,3.08
2023-05-20T05:10:09.860Z,3.55
2023-05-20T05:12:38.176Z,3.03
2023-05-20T05:15:06.574Z,3.65
2023-05-20T05:17:34.471Z,3.15
2023-05-20T05:20:02.367Z,3.17
2023-05-20T05:22:33.162Z,2.80
2023-05-20T05:25:01.071Z,3.35
2023-05-20T05:27:29.216Z,3.40
2023-05-20T05:29:56.931Z,3.25
2023-05-20T05:32:24.769Z,2.97
2023-05-20T05:34:52.683Z,3.67
2023-05-20T05:37:21.312Z,3.63
2023-05-20T05:39:49.382Z,3.63
2023-05-20T05:42:17.343Z,3.42
2023-05-20T05:44:45.190Z,3.58
2023-05-20T05:47:13.232Z,4.43
2023-05-20T05:49:41.177Z,3.92
2023-05-20T05:52:08.919Z,2.67
2023-05-20T05:54:36.750Z,4.90
2023-05-20T05:57:06.468Z,2.97
2023-05-20T05:59:36.262Z,4.03
2023-05-20T06:02:04.431Z,3.70
2023-05-20T06:04:32.307Z,4.20
2023-05-20T06:07:00.306Z,3.90
2023-05-20T06:09:28.123Z,3.00
2023-05-20T06:11:56.126Z,3.70
2023-05-20T06:14:23.834Z,3.38
2023-05-20T06:16:51.661Z,3.20
2023-05-20T06:19:19.915Z,3.65
2023-05-20T06:21:47.791Z,3.25
2023-05-20T06:24:16.220Z,3.90
2023-05-20T06:26:46.059Z,3.30
2023-05-20T06:29:13.899Z,3.58
2023-05-20T06:31:41.959Z,3.75
2023-05-20T06:34:09.634Z,3.60
2023-05-20T06:36:37.401Z,3.72
2023-05-20T06:39:06.591Z,5.07
2023-05-20T06:41:35.271Z,4.47
2023-05-20T06:44:09.762Z,3.60
2023-05-20T06:46:56.120Z,4.00
2023-05-20T06:49:24.899Z,7.80
2023-05-20T06:51:52.786Z,4.63
2023-05-20T06:54:20.480Z,3.70
2023-05-20T06:56:49.008Z,3.58
2023-05-20T06:59:16.700Z,3.92
2023-05-20T07:01:45.481Z,4.40
2023-05-20T07:04:13.578Z,4.13
2023-05-20T07:06:41.608Z,3.88
2023-05-20T07:09:10.136Z,3.17
2023-05-20T07:11:38.230Z,3.50
2023-05-20T07:14:06.374Z,3.53
2023-05-20T07:16:35.312Z,3.58
2023-05-20T07:19:04.353Z,3.08
2023-05-20T07:21:32.172Z,3.65
2023-05-20T07:24:03.501Z,3.22
2023-05-20T07:26:33.835Z,3.10
2023-05-20T07:29:05.126Z,3.33
2023-05-20T07:31:33.828Z,4.80
2023-05-20T07:34:07.562Z,3.17
2023-05-20T07:36:35.492Z,3.83
2023-05-20T07:39:10.923Z,3.95
2023-05-20T07:41:41.569Z,3.90
2023-05-20T07:44:11.357Z,3.92
2023-05-20T07:46:44.437Z,3.92
2023-05-20T07:49:13.053Z,4.03
2023-05-20T07:51:41.678Z,3.70
2023-05-20T07:54:09.456Z,3.38
2023-05-20T07:56:38.159Z,3.45
2023-05-20T07:59:06.975Z,3.38
2023-05-20T08:01:42.528Z,4.05
2023-05-20T08:04:12.315Z,3.63
2023-05-20T08:06:41.100Z,3.35
2023-05-20T08:09:14.255Z,3.70
2023-05-20T08:12:00.337Z,4.15
2023-05-20T08:14:29.107Z,4.00
2023-05-20T08:16:56.899Z,3.20
2023-05-20T08:19:24.717Z,3.90
2023-05-20T08:21:52.674Z,4.10
2023-05-20T08:24:20.388Z,6.13
2023-05-20T08:26:48.622Z,5.75
2023-05-20T08:29:18.382Z,4.10
2023-05-20T08:31:46.163Z,4.68
2023-05-20T08:34:14.476Z,4.05
2023-05-20T08:36:42.491Z,4.13
2023-05-20T08:39:10.826Z,3.95
2023-05-20T08:41:42.614Z,3.58
2023-05-20T08:44:11.814Z,4.13
2023-05-20T08:46:41.804Z,3.67
2023-05-20T08:49:09.603Z,3.67
2023-05-20T08:51:38.251Z,3.65
2023-05-20T08:54:08.823Z,3.95
2023-05-20T08:56:38.303Z,5.10
2023-05-20T08:59:06.794Z,9.23
2023-05-20T09:01:43.262Z,5.07
2023-05-20T09:04:13.835Z,4.05
2023-05-20T09:06:47.615Z,4.32
2023-05-20T09:09:15.960Z,4.78
2023-05-20T09:11:43.930Z,4.03
2023-05-20T09:14:11.595Z,4.85
2023-05-20T09:16:41.384Z,4.65
2023-05-20T09:19:10.390Z,4.07
2023-05-20T09:21:41.109Z,3.90
2023-05-20T09:24:08.804Z,4.05
2023-05-20T09:26:37.086Z,4.28
2023-05-20T09:29:05.725Z,4.88
2023-05-20T09:31:38.958Z,4.65
2023-05-20T09:34:08.196Z,4.20
2023-05-20T09:36:37.033Z,4.60
2023-05-20T09:39:05.856Z,3.78
2023-05-20T09:41:38.527Z,3.70
2023-05-20T09:44:07.364Z,4.00
2023-05-20T09:46:36.441Z,3.80
2023-05-20T09:49:07.912Z,4.68
2023-05-20T09:51:36.040Z,3.83
2023-05-20T09:54:05.091Z,3.72
2023-05-20T09:56:35.186Z,4.05
2023-05-20T09:59:05.277Z,3.92
2023-05-20T10:01:37.326Z,3.70
2023-05-20T10:04:07.453Z,4.38
2023-05-20T10:06:56.424Z,4.03
2023-05-20T10:09:45.392Z,3.72
2023-05-20T10:12:39.981Z,4.07
2023-05-20T10:15:18.337Z,3.45
2023-05-20T10:18:04.225Z,3.88
2023-05-20T10:22:59.952Z,3.95
2023-05-20T10:25:28.668Z,3.58
2023-05-20T10:28:09.080Z,4.55
2023-05-20T10:34:14.709Z,4.00
2023-05-20T10:37:12.923Z,3.50
2023-05-20T10:39:48.883Z,3.80
2023-05-20T10:42:17.114Z,3.38
2023-05-20T10:44:46.694Z,3.97
2023-05-20T10:49:55.402Z,3.20
2023-05-20T10:52:39.292Z,3.72
2023-05-20T10:55:18.917Z,3.58
2023-05-20T10:57:46.650Z,3.50
2023-05-20T11:00:16.867Z,4.15
2023-05-20T11:02:50.541Z,3.53
2023-05-20T11:05:22.120Z,3.22
2023-05-20T11:07:50.068Z,3.25
2023-05-20T11:10:17.630Z,3.30
2023-05-20T11:12:45.531Z,3.65
2023-05-20T11:15:15.026Z,3.17
2023-05-20T11:17:57.475Z,3.92
2023-05-20T11:20:26.480Z,3.20
2023-05-20T11:22:57.917Z,3.33
2023-05-20T11:25:29.033Z,3.80
2023-05-20T11:27:57.184Z,3.30
2023-05-20T11:30:25.878Z,3.90
2023-05-20T11:33:04.238Z,3.63
2023-05-20T11:35:37.410Z,4.57
2023-05-20T11:38:10.738Z,3.30
2023-05-20T11:40:50.376Z,3.42
2023-05-20T11:43:19.553Z,3.72
2023-05-20T11:45:52.936Z,3.40
2023-05-20T11:48:21.421Z,3.25
2023-05-20T11:50:49.165Z,3.30
2023-05-20T11:53:19.055Z,3.10
2023-05-20T11:55:48.984Z,3.40
2023-05-20T11:58:22.812Z,3.38
2023-05-20T12:00:55.160Z,3.70
2023-05-20T12:03:27.453Z,3.00
2023-05-20T12:05:57.561Z,3.38
2023-05-20T12:08:25.199Z,3.38
2023-05-20T12:10:55.363Z,3.40
2023-05-20T12:13:23.863Z,3.55
2023-05-20T12:15:51.508Z,3.42
2023-05-20T12:18:19.180Z,3.30
2023-05-20T12:20:53.997Z,3.30
2023-05-20T12:23:23.524Z,3.90
2023-05-20T12:25:54.193Z,3.03
2023-05-20T12:28:24.472Z,3.10
2023-05-20T12:30:52.226Z,3.70
2023-05-20T12:33:20.901Z,3.05
2023-05-20T12:35:48.709Z,3.85
2023-05-20T12:38:17.467Z,3.15
2023-05-20T12:40:45.263Z,3.00
2023-05-20T12:43:12.865Z,3.22
2023-05-20T12:45:40.554Z,3.33
2023-05-20T12:48:08.428Z,3.25
2023-05-20T12:50:36.512Z,2.90
2023-05-20T12:53:04.280Z,3.95
2023-05-20T12:55:31.994Z,3.25
2023-05-20T12:57:59.692Z,3.45
2023-05-20T13:00:27.529Z,3.25
2023-05-20T13:02:55.281Z,3.38
2023-05-20T13:05:23.266Z,3.75
2023-05-20T13:07:51.499Z,3.13
2023-05-20T13:10:22.914Z,3.15
2023-05-20T13:12:51.006Z,3.35
2023-05-20T13:15:18.884Z,3.30
2023-05-20T13:17:50.551Z,3.28
2023-05-20T13:20:19.888Z,3.65
2023-05-20T13:22:48.030Z,2.85
2023-05-20T13:25:15.668Z,3.40
2023-05-20T13:27:43.328Z,2.72
2023-05-20T13:30:11.349Z,2.88
2023-05-20T13:32:42.293Z,2.83
2023-05-20T13:35:14.631Z,2.70
2023-05-20T13:37:42.529Z,3.17
2023-05-20T13:40:10.814Z,3.10
2023-05-20T13:42:38.651Z,3.10
2023-05-20T13:45:12.377Z,2.78
2023-05-20T13:47:45.929Z,3.20
2023-05-20T13:50:13.921Z,3.28
2023-05-20T13:52:41.534Z,2.67
2023-05-20T13:55:09.865Z,2.70
2023-05-20T13:57:37.970Z,3.40
2023-05-20T14:00:07.169Z,2.90
2023-05-20T14:02:46.212Z,2.90
2023-05-20T14:05:14.063Z,3.33
2023-05-20T14:07:41.668Z,2.97
2023-05-20T14:10:09.453Z,3.58
2023-05-20T14:12:37.378Z,3.40
2023-05-20T14:15:06.816Z,3.33
2023-05-20T14:17:37.076Z,3.28
2023-05-20T14:20:06.151Z,3.22
2023-05-20T14:22:33.898Z,3.00
2023-05-20T14:25:01.495Z,2.72
2023-05-20T14:27:30.410Z,3.40
2023-05-20T14:29:59.975Z,2.67
2023-05-20T14:32:28.661Z,3.15
2023-05-20T14:34:56.341Z,2.83
2023-05-20T14:37:23.936Z,3.13
2023-05-20T14:39:51.685Z,3.13
2023-05-20T14:42:19.562Z,3.05
2023-05-20T14:44:49.482Z,3.25
2023-05-20T14:47:21.503Z,3.03
2023-05-20T14:49:51.626Z,3.40
2023-05-20T14:52:19.417Z,2.88
2023-05-20T14:54:47.351Z,3.35
2023-05-20T14:57:16.149Z,3.03
2023-05-20T14:59:47.250Z,3.08
2023-05-20T15:02:16.216Z,2.92
2023-05-20T15:04:47.067Z,3.03
2023-05-20T15:07:15.822Z,2.85
2023-05-20T15:09:44.100Z,2.47
2023-05-20T15:12:12.263Z,3.10
2023-05-20T15:14:40.145Z,3.10
2023-05-20T15:17:11.037Z,3.05
2023-05-20T15:19:41.946Z,2.83
2023-05-20T15:22:10.368Z,2.95
2023-05-20T15:24:40.919Z,2.60
2023-05-20T15:27:09.091Z,3.05
2023-05-20T15:29:38.847Z,3.00
2023-05-20T15:32:13.499Z,3.28
2023-05-20T15:34:44.828Z,2.85
2023-05-20T15:37:12.678Z,2.95
2023-05-20T15:39:40.481Z,2.78
2023-05-20T15:42:08.256Z,3.22
2023-05-20T15:44:36.589Z,2.45
2023-05-20T15:47:08.820Z,3.22
2023-05-20T15:49:36.721Z,2.70
2023-05-20T15:52:04.805Z,3.17
2023-05-20T15:54:32.984Z,2.75
2023-05-20T15:57:02.778Z,2.78
2023-05-20T15:59:33.471Z,3.58
2023-05-20T16:02:01.822Z,2.78
2023-05-20T16:04:30.290Z,3.53
2023-05-20T16:07:03.603Z,3.08
2023-05-20T16:09:31.448Z,2.63
2023-05-20T16:11:59.068Z,3.00
2023-05-20T16:14:26.610Z,2.55
2023-05-20T16:16:54.248Z,2.97
2023-05-20T16:19:24.010Z,2.67
2023-05-20T16:21:52.288Z,3.20
2023-05-20T16:24:19.885Z,2.45
2023-05-20T16:26:47.431Z,2.92
2023-05-20T16:29:16.575Z,3.22
2023-05-20T16:31:47.018Z,3.35
2023-05-20T16:34:16.462Z,4.00
2023-05-20T16:36:47.687Z,3.08
2023-05-20T16:39:15.928Z,3.50
2023-05-20T16:41:43.890Z,3.33
2023-05-20T16:44:11.527Z,3.05
2023-05-20T16:46:39.277Z,3.22
2023-05-20T16:49:07.188Z,3.78
2023-05-20T16:51:34.892Z,3.13
2023-05-20T16:54:02.457Z,3.67
2023-05-20T16:56:30.098Z,3.55
2023-05-20T16:58:57.910Z,3.40
2023-05-20T17:01:25.943Z,4.28
2023-05-20T17:03:54.171Z,4.13
2023-05-20T17:06:23.938Z,3.53
2023-05-20T17:08:51.579Z,3.85
2023-05-20T17:11:19.215Z,3.92
2023-05-20T17:13:46.735Z,4.35
2023-05-20T17:16:14.485Z,3.65
2023-05-20T17:18:42.560Z,3.88
2023-05-20T17:21:10.172Z,3.70
2023-05-20T17:23:37.703Z,4.60
2023-05-20T17:26:05.569Z,3.90
2023-05-20T17:28:33.145Z,3.80
2023-05-20T17:31:00.868Z,4.47
2023-05-20T17:33:28.512Z,4.18
2023-05-20T17:35:56.387Z,5.25
2023-05-20T17:38:26.392Z,5.20
2023-05-20T17:40:54.456Z,4.40
2023-05-20T17:43:22.335Z,4.82
2023-05-20T17:45:49.901Z,4.78
2023-05-20T17:48:18.018Z,4.70
2023-05-20T17:50:45.604Z,4.60
2023-05-20T17:53:13.177Z,4.57
2023-05-20T17:55:41.099Z,4.15
2023-05-20T17:58:08.885Z,4.50
2023-05-20T18:00:42.275Z,4.10
2023-05-20T18:03:10.555Z,4.32
2023-05-20T18:05:38.305Z,4.13
2023-05-20T18:08:05.978Z,4.38
2023-05-20T18:10:33.698Z,4.15
2023-05-20T18:13:01.599Z,4.25
2023-05-20T18:15:29.137Z,4.25
2023-05-20T18:17:56.736Z,4.28
2023-05-20T18:20:24.529Z,4.43
2023-05-20T18:22:58.215Z,4.68
2023-05-20T18:25:26.179Z,4.43
2023-05-20T18:27:53.852Z,4.00
2023-05-20T18:30:21.770Z,4.70
2023-05-20T18:32:49.872Z,4.05
2023-05-20T18:35:17.660Z,3.85
2023-05-20T18:37:45.297Z,4.90
2023-05-20T18:40:13.259Z,4.18
2023-05-20T18:42:41.082Z,5.00
2023-05-20T18:45:09.142Z,4.53
2023-05-20T18:47:36.963Z,6.13
2023-05-20T18:50:05.183Z,6.07
2023-05-20T18:52:32.756Z,7.15
2023-05-20T18:55:00.584Z,5.55
2023-05-20T18:57:28.263Z,5.60
2023-05-20T18:59:55.912Z,5.55
2023-05-20T19:02:23.693Z,5.38
2023-05-20T19:04:51.890Z,5.55
2023-05-20T19:07:19.745Z,4.65
2023-05-20T19:09:47.379Z,4.95
2023-05-20T19:12:14.935Z,4.90
2023-05-20T19:14:42.671Z,5.85
2023-05-20T19:17:10.565Z,6.40
2023-05-20T19:19:43.688Z,4.95
2023-05-20T19:22:11.764Z,6.05
2023-05-20T19:24:39.391Z,4.35
2023-05-20T19:27:07.199Z,5.10
2023-05-20T19:29:37.897Z,5.35
2023-05-20T19:32:06.079Z,4.75
2023-05-20T19:34:33.753Z,6.20
2023-05-20T19:37:01.506Z,5.53
2023-05-20T19:39:30.169Z,5.28
2023-05-20T19:41:57.854Z,5.47
2023-05-20T19:44:25.567Z,5.32
2023-05-20T19:46:53.687Z,5.40
2023-05-20T19:49:21.389Z,5.68
2023-05-20T19:51:49.676Z,5.35
2023-05-20T19:54:17.373Z,5.22
2023-05-20T19:56:45.106Z,5.93
2023-05-20T19:59:13.446Z,4.88
2023-05-20T20:01:41.459Z,4.82
2023-05-20T20:04:09.078Z,5.90
2023-05-20T20:06:36.659Z,5.88
2023-05-20T20:09:05.140Z,6.10
2023-05-20T20:11:32.798Z,4.90
2023-05-20T20:14:00.525Z,5.32
2023-05-20T20:16:29.330Z,6.00
2023-05-20T20:18:57.013Z,5.55
2023-05-20T20:21:25.804Z,4.97
2023-05-20T20:23:53.534Z,5.80
2023-05-20T20:26:25.836Z,6.57
2023-05-20T20:28:53.524Z,6.75
2023-05-20T20:31:21.286Z,5.82
2023-05-20T20:33:48.880Z,6.45
2023-05-20T20:36:16.829Z,7.13
2023-05-20T20:38:46.869Z,5.93
2023-05-20T20:41:16.269Z,5.65
2023-05-20T20:43:47.503Z,6.97
2023-05-20T20:46:15.111Z,6.35
2023-05-20T20:48:46.896Z,5.90
2023-05-20T20:51:15.848Z,6.45
2023-05-20T20:53:46.279Z,6.03
2023-05-20T20:56:13.901Z,5.43
2023-05-20T20:58:41.791Z,6.88
2023-05-20T21:01:11.515Z,5.65
2023-05-20T21:03:40.409Z,6.35
2023-05-20T21:06:08.316Z,6.47
2023-05-20T21:08:35.883Z,6.63
2023-05-20T21:11:03.436Z,5.40
2023-05-20T21:13:31.138Z,5.95
2023-05-20T21:15:58.807Z,7.18
2023-05-20T21:18:26.448Z,6.28
2023-05-20T21:20:55.644Z,6.47
2023-05-20T21:23:23.681Z,6.68
2023-05-20T21:25:51.376Z,6.80
2023-05-20T21:28:18.954Z,7.55
2023-05-20T21:30:46.516Z,6.70
2023-05-20T21:33:14.170Z,5.70
2023-05-20T21:35:41.791Z,6.05
2023-05-20T21:38:09.988Z,6.28
2023-05-20T21:40:37.544Z,6.30
2023-05-20T21:43:05.199Z,6.32
2023-05-20T21:45:32.876Z,6.63
2023-05-20T21:48:00.564Z,6.47
2023-05-20T21:50:28.269Z,6.75
2023-05-20T21:52:55.931Z,5.40
2023-05-20T21:55:23.907Z,5.72
2023-05-20T21:57:51.566Z,6.18
2023-05-20T22:00:20.742Z,6.25
2023-05-20T22:02:48.958Z,6.82
2023-05-20T22:05:17.493Z,5.80
2023-05-20T22:07:45.084Z,5.57
2023-05-20T22:10:14.238Z,5.50
2023-05-20T22:12:44.537Z,6.28
2023-05-20T22:15:12.292Z,5.72
2023-05-20T22:17:40.003Z,5.43
2023-05-20T22:20:08.726Z,5.78
2023-05-20T22:22:39.320Z,6.07
2023-05-20T22:25:07.538Z,5.90
2023-05-20T22:27:35.261Z,6.30
2023-05-20T22:30:06.101Z,5.72
2023-05-20T22:32:34.453Z,5.95
2023-05-20T22:35:02.760Z,5.43
2023-05-20T22:37:30.501Z,5.05
2023-05-20T22:39:58.149Z,5.85
2023-05-20T22:42:25.889Z,6.53
2023-05-20T22:44:53.583Z,5.32
2023-05-20T22:47:21.266Z,5.72
2023-05-20T22:49:48.923Z,5.45
2023-05-20T22:52:17.376Z,5.20
2023-05-20T22:54:45.040Z,5.63
2023-05-20T22:57:12.784Z,5.30
2023-05-20T22:59:40.410Z,5.88
2023-05-20T23:02:08.233Z,6.20
2023-05-20T23:04:35.972Z,6.22
2023-05-20T23:07:03.771Z,5.30
2023-05-20T23:09:31.608Z,5.15
2023-05-20T23:11:59.373Z,5.25
2023-05-20T23:14:27.392Z,5.15
2023-05-20T23:16:55.087Z,5.63
2023-05-20T23:19:22.977Z,6.05
2023-05-20T23:21:50.662Z,5.57
2023-05-20T23:24:18.439Z,5.43
2023-05-20T23:26:46.085Z,5.50
2023-05-20T23:29:14.711Z,6.22
2023-05-20T23:31:42.352Z,6.03
2023-05-20T23:34:10.189Z,5.90
2023-05-20T23:36:41.948Z,6.18
2023-05-20T23:39:09.703Z,5.38
2023-05-20T23:41:37.273Z,5.32
2023-05-20T23:44:05.040Z,5.22
2023-05-20T23:46:32.703Z,5.57
2023-05-20T23:49:01.928Z,6.35
2023-05-20T23:51:29.768Z,6.22
2023-05-20T23:53:57.485Z,6.05
2023-05-20T23:56:25.077Z,6.55
2023-05-20T23:58:52.758Z,6.53
